EPWAEPKK

Guest
Details From EPWA - Warsaw Chopin Airport
To EPKK - Krakow John Paul II
Flight Number -
Tags decoded
Created
Modified
Stats Distance 133 nm / 246 km
Max Altitude 0 ft / 0 m
Waypoints 2
Social Downloads 0
Likes 0
Share VATSIM

Download

Looking for another format? Having issues loading an existing format? Contact us
Advertisement - Login to hide

Notes

Requested: EPWA KK70 EPKK Unmatched points: KK70

Route

EPWA EPKK

ID Type Via Altitude (ft/m) Position (lat/lon) Dist (leg/tot) Name
O EPWA APT - 0 / 0 52.16510 / 20.96700 - / 0 nm Warsaw Chopin Airport
O EPKK APT - 0 / 0 50.07780 / 19.78550 133 / 133 nm Krakow John Paul II

Altitude Profile

Advertisement - Login to hide

EPWA

Details ICAO EPWA (WAW)
Name Warsaw Chopin Airport
Region Poland
Timezone Europe/Warsaw (UTC+2.0)
Stats Elevation 328 ft / 100 m (AMSL)
Location 52.165100° 20.967000°
Runways 2
Magnetic Variation 6.038° E

METAR

EPWA 170600Z 20005KT 9999 BKN046 09/07 Q1016 NOSIG

Decode

TAF

TAF EPWA 170530Z 1706/1806 19007KT CAVOK

Decode

Departure Runways

ID Width Length Bearing (true/mag) Surface Threshold Overrun Markings Lighting
11 164 ft / 50 m 9,196 ft / 2,803 m 114.58° / 108.54° CONCRETE 0 ft / 0 m 489 ft / 149 m PREC-APP CENTERLINE EDGE THRESHOLD ALSF-II TDZ REIL-OMNI
15 197 ft / 60 m 12,119 ft / 3,694 m 151.83° / 145.79° CONCRETE 0 ft / 0 m 148 ft / 45 m PREC-APP CENTERLINE EDGE THRESHOLD SSALR REIL-OMNI
29 164 ft / 50 m 9,196 ft / 2,803 m 294.61° / 288.57° CONCRETE 1,627 ft / 496 m 102 ft / 31 m PREC-APP CENTERLINE EDGE THRESHOLD SSALF TDZ REIL-OMNI
33 197 ft / 60 m 12,119 ft / 3,694 m 331.85° / 325.81° CONCRETE 2,175 ft / 663 m 135 ft / 41 m PREC-APP CENTERLINE EDGE THRESHOLD ALSF-II TDZ REIL-OMNI

EPKK

Details ICAO EPKK (KRK)
Name Krakow John Paul II
Region Poland
Timezone Europe/Warsaw (UTC+2.0)
Stats Elevation 791 ft / 241 m (AMSL)
Location 50.077800° 19.785500°
Runways 1
Magnetic Variation 5.428° E

METAR

EPKK 170600Z VRB01KT CAVOK 06/05 Q1019

Decode

TAF

TAF EPKK 170530Z 1706/1806 VRB02KT CAVOK

Decode

Destination Runways

ID Width Length Bearing (true/mag) Surface Threshold Overrun Markings Lighting
07 197 ft / 60 m 8,374 ft / 2,552 m 77.75° / 72.32° CONCRETE 0 ft / 0 m 0 ft / 0 m PREC-APP CENTERLINE EDGE THRESHOLD SALS REIL-OMNI
25 197 ft / 60 m 8,374 ft / 2,552 m 257.77° / 252.35° CONCRETE 778 ft / 237 m 0 ft / 0 m PREC-APP CENTERLINE EDGE THRESHOLD ALSF-I REIL-OMNI

Approach Navaids

Runway Type Ident Frequency Range Bearing (true/mag) Slope Elevation
25 LOC-ILS KRW 110.30 MHz 18 nm / 33 km 257.73° / 252.30 ° - 791 ft / 241 m (AMSL)
25 OM OM - - 257.76° / 252.33 ° - 791 ft / 241 m (AMSL)
25 GS KRW 110.30 MHz 10 nm / 19 km 258.52° / 253.09 ° 3.00° 791 ft / 241 m (AMSL)
25 MM MM - - 257.76° / 252.33 ° - 791 ft / 241 m (AMSL)
25 DME KRW 110.30 MHz 18 nm / 33 km - - 827 ft / 252 m (AMSL)

Popular Alternatives